Time;durP1;ratioP1;P1;durP2;ratioP2;P2;SDS_P1;SDS_P2;PMS_P1;PMS_P2;Temp;Humidity;BMP_temperature;BMP_pressure;BME280_temperature;BME280_humidity;BME280_pressure;Samples;Min_cycle;Max_cycle;Signal;HPM_P1;HPM_P2
2022/06/12 10:02:13;;;;;;;;;;;;;;;27.41;79.80;98884.22;5962768;23;19956;31
2022/06/12 10:04:49;;;;;;;;;;;;;;;27.32;75.37;98874.41;4860499;29;19959;-74
2022/06/12 10:07:22;;;;;;;;;;;;;;;27.38;76.48;98880.28;4862349;29;19972;-75
2022/06/12 10:10:12;;;;;;;;;;;;;;;27.34;71.26;98880.44;4862258;29;19974;-75
2022/06/12 10:12:43;;;;;;;;;;;;;;;27.46;76.17;98872.84;4854254;29;19951;-73
2022/06/12 10:15:13;;;;;;;;;;;;;;;27.90;65.20;98873.47;4847577;29;19955;-73
2022/06/12 10:17:46;;;;;;;;;;;;;;;27.85;68.19;98874.19;4862692;29;19953;-74
2022/06/12 10:20:17;;;;;;;;;;;;;;;28.04;70.73;98863.25;4855195;29;19945;-74
2022/06/12 10:22:46;;;;;;;;;;;;;;;27.93;63.39;98860.97;5105167;23;19971;-69
2022/06/12 10:25:18;;;;;;;;;;;;;;;27.85;66.77;98861.91;4898225;29;19962;-70
2022/06/12 10:27:48;;;;;;;;;;;;;;;28.02;61.60;98857.97;4889365;29;20360;-70
2022/06/12 10:30:26;;;;;;;;;;;;;;;27.97;65.07;98855.00;5134444;23;19979;-71
2022/06/12 10:32:55;;;;;;;;;;;;;;;28.00;68.85;98843.31;4901404;29;19956;-69
2022/06/12 10:35:23;;;;;;;;;;;;;;;28.04;70.41;98843.13;4899603;29;19961;-68
2022/06/12 10:37:51;;;;;;;;;;;;;;;28.02;67.41;98839.97;4897485;29;20082;-69
2022/06/12 10:40:24;;;;;;;;;;;;;;;27.91;61.86;98837.69;4899974;29;19962;-70
2022/06/12 10:42:54;;;;;;;;;;;;;;;27.90;68.28;98832.44;4890789;29;19948;-68
2022/06/12 10:45:23;;;;;;;;;;;;;;;28.02;62.97;98833.41;4898447;29;19950;-69
2022/06/12 10:47:51;;;;;;;;;;;;;;;27.78;62.98;98836.47;4900401;29;20209;-70
2022/06/12 10:50:19;;;;;;;;;;;;;;;27.98;67.11;98824.94;4899915;29;20248;-70
2022/06/12 10:53:05;;;;;;;;;;;;;;;28.11;58.48;98833.25;4900235;29;19980;-69
2022/06/12 10:55:53;;;;;;;;;;;;;;;28.22;61.93;98819.78;4898327;29;20252;-69
2022/06/12 10:58:39;;;;;;;;;;;;;;;28.37;67.09;98820.50;4896114;29;20267;-71
2022/06/12 11:01:16;;;;;;;;;;;;;;;28.46;62.80;98816.66;4897693;29;19960;-71
2022/06/12 11:04:07;;;;;;;;;;;;;;;28.54;67.30;98809.94;4900072;29;19952;-71
2022/06/12 11:06:53;;;;;;;;;;;;;;;28.49;68.53;98812.75;4896767;29;19959;-70
2022/06/12 11:09:21;;;;;;;;;;;;;;;28.44;67.89;98813.53;4899180;29;20256;-70
2022/06/12 11:11:48;;;;;;;;;;;;;;;28.31;62.06;98805.28;4898148;29;19976;-70
2022/06/12 11:14:16;;;;;;;;;;;;;;;28.43;67.58;98803.28;4899572;29;19958;-71
2022/06/12 11:16:46;;;;;;;;;;;;;;;28.69;67.41;98797.56;4900046;29;19951;-71
2022/06/12 11:19:26;;;;;;;;;;;;;;;28.82;64.94;98795.88;4900678;29;19950;-71
2022/06/12 11:21:54;;;;;;;;;;;;;;;28.99;60.54;98796.00;4898798;29;19952;-70
2022/06/12 11:24:24;;;;;;;;;;;;;;;28.99;73.90;98798.88;4900000;29;20222;-71
2022/06/12 11:26:51;;;;;;;;;;;;;;;29.04;62.33;98789.50;4899551;29;19958;-72
2022/06/12 11:29:28;;;;;;;;;;;;;;;28.93;69.16;98795.94;4900153;29;19969;-71
2022/06/12 11:32:13;;;;;;;;;;;;;;;29.10;59.58;98790.34;4901332;29;20235;-71
2022/06/12 11:35:00;;;;;;;;;;;;;;;29.03;63.80;98782.16;4903032;29;19958;-71
2022/06/12 11:37:39;;;;;;;;;;;;;;;29.10;62.50;98782.47;4904214;29;20039;-71
2022/06/12 11:40:24;;;;;;;;;;;;;;;29.10;67.87;98782.47;4903817;29;19948;-71
2022/06/12 11:42:57;;;;;;;;;;;;;;;29.05;78.08;98777.44;4902129;29;19952;-71
2022/06/12 11:45:49;;;;;;;;;;;;;;;29.01;73.77;98773.22;4903739;29;19952;-72
2022/06/12 11:48:19;;;;;;;;;;;;;;;28.90;70.95;98773.97;4904067;29;19965;-69
2022/06/12 11:50:56;;;;;;;;;;;;;;;29.01;71.25;98774.03;4903283;29;19966;-70
2022/06/12 11:53:38;;;;;;;;;;;;;;;29.10;69.51;98770.19;4904037;29;19954;-71
2022/06/12 11:56:18;;;;;;;;;;;;;;;29.16;66.91;98766.03;4900171;29;19948;-70
2022/06/12 11:58:54;;;;;;;;;;;;;;;29.20;65.40;98763.72;4896149;29;19955;-70
2022/06/12 12:01:43;;;;;;;;;;;;;;;29.21;69.66;98753.00;4903559;29;19963;-68
2022/06/12 12:04:28;;;;;;;;;;;;;;;29.18;69.10;98757.66;4887661;29;20276;-69
2022/06/12 12:06:56;;;;;;;;;;;;;;;29.17;64.50;98761.84;4893534;29;19960;-71
2022/06/12 12:09:44;;;;;;;;;;;;;;;29.19;63.01;98759.28;4904426;29;19949;-68
2022/06/12 12:12:15;;;;;;;;;;;;;;;29.24;60.69;98754.84;4875404;29;19976;-70
2022/06/12 12:14:44;;;;;;;;;;;;;;;29.45;54.43;98767.00;4903620;29;19987;-71
2022/06/12 12:17:20;;;;;;;;;;;;;;;29.37;56.29;98765.94;4903753;29;19949;-69
2022/06/12 12:19:56;;;;;;;;;;;;;;;29.43;56.01;98760.97;4903148;29;19951;-70
2022/06/12 12:22:23;;;;;;;;;;;;;;;29.28;60.45;98759.06;4903503;29;19955;-70
2022/06/12 12:24:58;;;;;;;;;;;;;;;29.22;65.28;98758.22;4902958;29;19951;-70
2022/06/12 12:27:25;;;;;;;;;;;;;;;29.23;58.09;98756.16;4903270;29;19951;-70
2022/06/12 12:29:54;;;;;;;;;;;;;;;29.09;55.63;98751.31;4903337;29;19985;-72
2022/06/12 12:32:22;;;;;;;;;;;;;;;28.99;56.07;98750.72;4902853;29;20018;-71
2022/06/12 12:34:51;;;;;;;;;;;;;;;29.09;54.09;98745.56;4901877;29;19958;-71
2022/06/12 12:43:18;;;;;;;;;;;;;;;28.79;58.00;98733.53;4900784;29;19957;-70
2022/06/12 12:45:45;;;;;;;;;;;;;;;28.74;56.67;98727.72;4903178;29;20258;-71
2022/06/12 12:48:14;;;;;;;;;;;;;;;28.76;67.74;98725.16;4903140;29;19963;-70
2022/06/12 12:50:43;;;;;;;;;;;;;;;28.82;64.30;98720.22;4896388;29;19977;-70
2022/06/12 12:53:20;;;;;;;;;;;;;;;28.77;62.74;98721.75;4894899;29;19952;-70
2022/06/12 12:55:56;;;;;;;;;;;;;;;28.83;63.83;98716.81;4901715;29;20325;-70
2022/06/12 12:58:24;;;;;;;;;;;;;;;28.89;61.80;98709.03;4902924;29;20368;-70
2022/06/12 13:01:21;;;;;;;;;;;;;;;28.93;66.62;98709.56;4902429;29;19949;-69
2022/06/12 13:03:54;;;;;;;;;;;;;;;28.94;64.21;98701.72;4872057;29;19956;-71
2022/06/12 13:06:21;;;;;;;;;;;;;;;28.97;64.25;98703.59;4884885;29;20326;-71
2022/06/12 13:08:59;;;;;;;;;;;;;;;29.00;65.73;98697.56;4900639;29;19961;-71
2022/06/12 13:11:29;;;;;;;;;;;;;;;29.01;63.57;98690.53;4898540;29;19984;-73
2022/06/12 13:14:06;;;;;;;;;;;;;;;28.90;60.28;98699.09;4902229;29;20603;-72
2022/06/12 13:16:37;;;;;;;;;;;;;;;28.95;61.52;98683.94;4902891;29;19965;-72
2022/06/12 13:19:05;;;;;;;;;;;;;;;28.90;57.66;98676.06;4902222;29;20391;-72
2022/06/12 13:21:48;;;;;;;;;;;;;;;28.98;60.17;98677.16;4902626;29;19961;-72
2022/06/12 13:24:34;;;;;;;;;;;;;;;29.03;64.72;98679.28;4891893;29;20608;-70
2022/06/12 13:27:12;;;;;;;;;;;;;;;29.01;68.76;98673.25;4901333;29;19962;-70
2022/06/12 13:29:43;;;;;;;;;;;;;;;29.08;64.59;98669.09;4901463;29;19955;-70
2022/06/12 13:32:24;;;;;;;;;;;;;;;29.15;59.46;98672.28;4875575;29;19990;-70
2022/06/12 13:35:01;;;;;;;;;;;;;;;29.28;64.11;98654.56;4869960;29;20249;-70
2022/06/12 13:37:29;;;;;;;;;;;;;;;29.15;61.94;98657.88;4876840;29;19953;-70
2022/06/12 13:39:59;;;;;;;;;;;;;;;29.17;66.72;98655.25;4884191;29;19961;-70
2022/06/12 13:42:28;;;;;;;;;;;;;;;29.19;63.55;98658.47;4884179;29;19969;-70
2022/06/12 13:44:57;;;;;;;;;;;;;;;29.09;61.27;98644.75;4874562;29;19961;-70
2022/06/12 13:47:35;;;;;;;;;;;;;;;29.12;56.48;98640.84;4874126;29;19958;-70
2022/06/12 13:50:44;;;;;;;;;;;;;;;29.13;59.43;98642.41;4882824;29;19969;-70
2022/06/12 13:53:15;;;;;;;;;;;;;;;29.31;55.26;98633.38;4863026;29;19961;-70
2022/06/12 13:55:49;;;;;;;;;;;;;;;29.17;58.02;98629.34;4881951;29;19963;-70
2022/06/12 13:58:22;;;;;;;;;;;;;;;29.19;58.02;98620.22;4876529;29;20229;-70
2022/06/12 14:00:53;;;;;;;;;;;;;;;29.17;60.52;98609.19;4873519;29;19953;-70
2022/06/12 14:03:23;;;;;;;;;;;;;;;29.16;59.73;98621.22;4877646;29;19952;-70
2022/06/12 14:05:53;;;;;;;;;;;;;;;29.16;56.69;98615.47;4880942;29;20235;-70
2022/06/12 14:08:20;;;;;;;;;;;;;;;29.14;56.54;98621.75;4874946;29;19952;-70
2022/06/12 14:10:49;;;;;;;;;;;;;;;29.12;58.88;98614.94;4882972;29;20038;-70
2022/06/12 14:13:23;;;;;;;;;;;;;;;29.10;59.50;98614.66;4881281;29;19952;-70
2022/06/12 14:15:50;;;;;;;;;;;;;;;29.09;59.37;98604.44;4882254;29;19983;-70
2022/06/12 14:18:23;;;;;;;;;;;;;;;29.10;55.48;98618.31;4879131;29;19980;-70
2022/06/12 14:20:58;;;;;;;;;;;;;;;29.14;60.91;98609.44;4878647;29;19963;-70
2022/06/12 14:23:25;;;;;;;;;;;;;;;29.15;61.05;98608.13;4883096;29;19958;-70
2022/06/12 14:25:57;;;;;;;;;;;;;;;29.14;60.65;98613.13;4883101;29;19956;-70
2022/06/12 14:28:27;;;;;;;;;;;;;;;29.17;61.87;98602.66;4882810;29;20363;-70
2022/06/12 14:31:10;;;;;;;;;;;;;;;29.03;49.07;98615.91;4891593;29;19968;-70
2022/06/12 14:33:40;;;;;;;;;;;;;;;29.07;47.27;98613.59;4901690;29;19953;-70
2022/06/12 14:36:10;;;;;;;;;;;;;;;29.07;50.92;98610.72;4900911;29;19963;-70
2022/06/12 14:38:38;;;;;;;;;;;;;;;29.05;54.55;98598.91;4897900;29;19950;-70
2022/06/12 14:41:18;;;;;;;;;;;;;;;29.17;54.40;98594.00;4898031;29;19952;-70
2022/06/12 14:43:46;;;;;;;;;;;;;;;29.36;45.05;98598.03;4899158;29;19952;-70
2022/06/12 14:46:15;;;;;;;;;;;;;;;29.36;44.58;98592.28;4900336;29;19949;-70
2022/06/12 14:48:42;;;;;;;;;;;;;;;29.40;44.90;98592.00;4899638;29;19955;-70
2022/06/12 14:51:09;;;;;;;;;;;;;;;29.28;46.70;98585.44;4897217;29;19958;-70
2022/06/12 14:53:37;;;;;;;;;;;;;;;29.22;47.16;98581.75;4900041;29;19955;-70
2022/06/12 14:56:10;;;;;;;;;;;;;;;29.12;46.26;98586.13;4898207;29;19957;-70
2022/06/12 14:58:39;;;;;;;;;;;;;;;29.05;45.94;98584.50;4900478;29;19955;-70
2022/06/12 15:01:09;;;;;;;;;;;;;;;28.92;48.35;98569.81;4899838;29;20284;-70
2022/06/12 15:03:37;;;;;;;;;;;;;;;28.91;48.54;98582.63;4896248;29;19956;-70
2022/06/12 15:06:05;;;;;;;;;;;;;;;28.91;48.72;98576.06;4898982;29;19967;-70
2022/06/12 15:08:34;;;;;;;;;;;;;;;28.91;49.87;98585.50;4897615;29;19956;-70
2022/06/12 15:11:01;;;;;;;;;;;;;;;28.90;51.17;98575.31;4894132;29;19956;-70
2022/06/12 15:13:28;;;;;;;;;;;;;;;28.89;53.21;98573.72;4877107;29;19971;-70
2022/06/12 15:15:55;;;;;;;;;;;;;;;28.92;51.90;98572.69;4891165;29;19952;-69
2022/06/12 15:18:23;;;;;;;;;;;;;;;28.92;51.81;98569.00;4885548;29;19961;-70
2022/06/12 15:20:53;;;;;;;;;;;;;;;28.89;53.17;98561.41;4896163;29;19952;-69
2022/06/12 15:23:23;;;;;;;;;;;;;;;28.87;54.86;98567.69;4891764;29;19955;-70
2022/06/12 15:31:24;;;;;;;;;;;;;;;28.97;49.40;98560.41;4897316;29;19973;-69
2022/06/12 15:34:08;;;;;;;;;;;;;;;28.93;51.09;98554.09;4896015;29;19961;-69
2022/06/12 15:36:35;;;;;;;;;;;;;;;28.93;51.40;98547.56;4897919;29;19958;-69
2022/06/12 15:39:03;;;;;;;;;;;;;;;28.95;53.14;98542.88;4897733;29;20251;-69
2022/06/12 15:41:31;;;;;;;;;;;;;;;28.88;50.99;98543.34;4898481;29;19956;-69
2022/06/12 15:43:58;;;;;;;;;;;;;;;28.92;52.18;98532.38;4884929;29;19951;-69
2022/06/12 15:46:27;;;;;;;;;;;;;;;28.90;56.75;98526.34;4895730;29;19959;-69
2022/06/12 15:48:56;;;;;;;;;;;;;;;28.83;56.37;98529.69;4882976;29;19960;-69
2022/06/12 15:51:23;;;;;;;;;;;;;;;28.76;54.03;98527.31;4897067;29;19952;-69
2022/06/12 15:53:51;;;;;;;;;;;;;;;28.73;52.51;98524.69;4899529;29;19951;-69
2022/06/12 15:56:20;;;;;;;;;;;;;;;28.69;54.96;98524.13;4896404;29;19958;-69
2022/06/12 15:58:47;;;;;;;;;;;;;;;28.62;55.07;98526.22;4899027;29;19960;-69
2022/06/12 16:01:19;;;;;;;;;;;;;;;28.53;50.03;98531.34;4898787;29;19955;-69
2022/06/12 16:03:47;;;;;;;;;;;;;;;28.50;51.57;98533.19;4898011;29;19951;-69
2022/06/12 16:06:16;;;;;;;;;;;;;;;28.51;51.63;98525.34;4900166;29;19964;-70
2022/06/12 16:08:43;;;;;;;;;;;;;;;28.50;52.25;98520.88;4899188;29;19960;-70
2022/06/12 16:11:12;;;;;;;;;;;;;;;28.47;52.69;98516.94;4896744;29;19960;-69
2022/06/12 16:13:40;;;;;;;;;;;;;;;28.44;52.81;98520.06;4894830;29;19969;-68
2022/06/12 16:16:07;;;;;;;;;;;;;;;28.39;54.88;98523.69;4887543;29;19952;-68
2022/06/12 16:18:35;;;;;;;;;;;;;;;28.39;50.82;98517.94;4901407;29;19981;-68
2022/06/12 16:21:02;;;;;;;;;;;;;;;28.39;49.18;98524.47;4902652;29;20347;-69
2022/06/12 16:23:33;;;;;;;;;;;;;;;28.38;48.93;98520.03;4903197;29;19957;-68
2022/06/12 16:26:01;;;;;;;;;;;;;;;28.35;52.84;98514.50;4897543;29;20208;-68
2022/06/12 16:28:28;;;;;;;;;;;;;;;28.30;55.61;98503.75;4902680;29;20268;-68
2022/06/12 16:30:55;;;;;;;;;;;;;;;28.22;56.53;98509.19;4899351;29;20363;-68
2022/06/12 16:33:24;;;;;;;;;;;;;;;28.15;59.14;98500.25;4903002;29;19968;-69
2022/06/12 16:35:55;;;;;;;;;;;;;;;28.10;65.38;98492.38;4902713;29;19953;-69
2022/06/12 16:38:23;;;;;;;;;;;;;;;28.05;67.81;98490.25;4902755;29;20373;-69
2022/06/12 16:40:51;;;;;;;;;;;;;;;28.01;58.06;98499.09;4902306;29;19952;-68
2022/06/12 16:43:18;;;;;;;;;;;;;;;28.00;62.26;98494.66;4887947;29;20259;-68
2022/06/12 16:45:45;;;;;;;;;;;;;;;28.02;61.34;98489.19;4900800;29;20217;-69
2022/06/12 16:48:13;;;;;;;;;;;;;;;28.02;62.04;98492.06;4896845;29;19991;-69
2022/06/12 16:50:40;;;;;;;;;;;;;;;28.02;61.63;98488.41;4900535;29;20207;-69
2022/06/12 16:53:07;;;;;;;;;;;;;;;28.02;62.61;98494.94;4900827;29;19972;-69
2022/06/12 16:55:35;;;;;;;;;;;;;;;27.99;66.80;98504.56;4892398;29;19951;-68
2022/06/12 16:58:02;;;;;;;;;;;;;;;27.93;66.46;98495.09;4899057;29;19965;-68
2022/06/12 17:00:29;;;;;;;;;;;;;;;27.87;68.58;98494.28;4896631;29;19951;-69
2022/06/12 17:02:58;;;;;;;;;;;;;;;27.79;67.73;98499.69;4893837;29;19959;-69
2022/06/12 17:05:26;;;;;;;;;;;;;;;27.75;59.03;98501.22;4902558;29;19950;-69
2022/06/12 17:07:56;;;;;;;;;;;;;;;27.76;73.82;98497.84;4902552;29;19958;-68
2022/06/12 17:10:25;;;;;;;;;;;;;;;27.67;69.45;98502.97;4903172;29;19951;-68
2022/06/12 17:12:53;;;;;;;;;;;;;;;27.62;69.38;98497.97;4901653;29;19999;-68
2022/06/12 17:15:22;;;;;;;;;;;;;;;27.54;74.72;98500.50;4902052;29;20241;-69
2022/06/12 17:20:42;;;;;;;;;;;;;;;27.44;82.29;98489.72;4885988;29;19947;-68
2022/06/12 17:23:32;;;;;;;;;;;;;;;27.34;83.20;98489.03;4883828;29;19949;-69
2022/06/12 17:25:59;;;;;;;;;;;;;;;27.27;80.61;98483.75;4898489;29;20006;-68
2022/06/12 17:28:26;;;;;;;;;;;;;;;27.25;74.71;98478.53;4899165;29;19945;-69
2022/06/12 17:30:55;;;;;;;;;;;;;;;27.24;79.37;98479.81;4901257;29;19974;-68
2022/06/12 17:33:22;;;;;;;;;;;;;;;27.24;77.44;98484.78;4899148;29;19977;-68
2022/06/12 17:35:50;;;;;;;;;;;;;;;27.29;74.66;98490.56;4894515;29;19952;-68
2022/06/12 17:38:17;;;;;;;;;;;;;;;27.27;75.99;98489.50;4900779;29;20606;-69
2022/06/12 17:40:45;;;;;;;;;;;;;;;27.26;79.51;98487.94;4895547;29;19952;-69
2022/06/12 17:43:12;;;;;;;;;;;;;;;27.16;77.02;98489.38;4891907;29;19962;-69
2022/06/12 17:45:40;;;;;;;;;;;;;;;27.08;74.91;98486.19;4900856;29;19952;-69
2022/06/12 17:48:11;;;;;;;;;;;;;;;27.02;73.57;98485.31;4900744;29;19950;-68
2022/06/12 17:50:40;;;;;;;;;;;;;;;27.00;76.15;98487.09;4894968;29;19954;-68
2022/06/12 17:53:08;;;;;;;;;;;;;;;26.94;76.13;98484.19;4900906;29;19977;-68
2022/06/12 17:55:36;;;;;;;;;;;;;;;27.04;69.80;98479.88;4889196;29;19953;-68
2022/06/12 17:58:04;;;;;;;;;;;;;;;26.97;75.16;98474.56;4892822;29;19963;-68
2022/06/12 18:00:32;;;;;;;;;;;;;;;26.86;77.65;98480.19;4902041;29;19952;-68
2022/06/12 18:02:59;;;;;;;;;;;;;;;26.79;77.96;98482.69;4899735;29;19959;-68
2022/06/12 18:05:27;;;;;;;;;;;;;;;26.72;78.75;98478.16;4892846;29;20029;-68
2022/06/12 18:07:55;;;;;;;;;;;;;;;26.66;76.57;98483.81;4901177;29;19959;-68
2022/06/12 18:10:22;;;;;;;;;;;;;;;26.62;77.17;98480.38;4899720;29;19951;-68
2022/06/12 18:12:50;;;;;;;;;;;;;;;26.59;75.53;98489.19;4899684;29;19965;-68
2022/06/12 18:20:53;;;;;;;;;;;;;;;26.61;73.73;98498.88;4897261;29;19959;-68
2022/06/12 18:23:20;;;;;;;;;;;;;;;26.56;75.69;98495.94;4898952;29;20250;-68
2022/06/12 18:25:48;;;;;;;;;;;;;;;26.51;77.02;98496.63;4896947;29;19967;-68
2022/06/12 18:28:15;;;;;;;;;;;;;;;26.46;76.70;98495.28;4897612;29;19949;-68
2022/06/12 18:30:42;;;;;;;;;;;;;;;26.45;75.72;98487.19;4882960;29;19968;-68
2022/06/12 18:33:10;;;;;;;;;;;;;;;26.46;74.74;98495.28;4898829;29;19967;-68
2022/06/12 18:35:39;;;;;;;;;;;;;;;26.47;74.47;98501.81;4898031;29;20408;-68
2022/06/12 18:38:08;;;;;;;;;;;;;;;26.38;77.03;98501.94;4898543;29;19951;-68
2022/06/12 18:40:35;;;;;;;;;;;;;;;26.33;76.55;98500.59;4891137;29;19986;-68
2022/06/12 18:43:02;;;;;;;;;;;;;;;26.30;76.52;98503.66;4891291;29;19951;-68
2022/06/12 18:45:29;;;;;;;;;;;;;;;26.24;76.78;98512.16;4899176;29;20340;-68
2022/06/12 18:47:57;;;;;;;;;;;;;;;26.23;77.83;98512.69;4894524;29;19948;-68
2022/06/12 18:50:24;;;;;;;;;;;;;;;26.17;77.78;98508.91;4897314;29;19949;-68
2022/06/12 18:52:51;;;;;;;;;;;;;;;26.13;78.44;98506.28;4898061;29;19952;-68
2022/06/12 18:55:18;;;;;;;;;;;;;;;26.08;79.50;98502.00;4896855;29;19953;-68
2022/06/12 18:57:46;;;;;;;;;;;;;;;26.06;78.82;98506.66;4900733;29;19982;-68
2022/06/12 19:00:14;;;;;;;;;;;;;;;26.01;78.54;98505.28;4898942;29;20250;-68
2022/06/12 19:02:42;;;;;;;;;;;;;;;25.97;80.42;98501.81;4890632;29;19949;-68
2022/06/12 19:05:09;;;;;;;;;;;;;;;25.93;80.95;98494.72;4899232;29;19966;-68
2022/06/12 19:07:37;;;;;;;;;;;;;;;25.88;81.08;98496.22;4893775;29;19943;-68
2022/06/12 19:10:05;;;;;;;;;;;;;;;25.84;80.51;98497.72;4894342;29;19961;-68
2022/06/12 19:12:33;;;;;;;;;;;;;;;25.84;79.36;98504.25;4883098;29;19971;-68
2022/06/12 19:15:15;;;;;;;;;;;;;;;25.86;79.86;98506.59;4900092;29;20347;-68
2022/06/12 19:17:43;;;;;;;;;;;;;;;25.86;79.14;98507.41;4899183;29;19949;-68
2022/06/12 19:20:11;;;;;;;;;;;;;;;25.84;80.94;98509.97;4897135;29;19957;-68
2022/06/12 19:22:38;;;;;;;;;;;;;;;25.80;80.82;98505.72;4894804;29;20340;-68
2022/06/12 19:25:06;;;;;;;;;;;;;;;25.77;81.06;98501.00;4892925;29;20346;-68
2022/06/12 19:27:33;;;;;;;;;;;;;;;25.76;81.13;98508.00;4899809;29;19957;-68
2022/06/12 19:30:00;;;;;;;;;;;;;;;25.77;80.39;98507.50;4901711;29;19954;-68
2022/06/12 19:32:28;;;;;;;;;;;;;;;25.77;81.18;98509.56;4897073;29;19947;-68
2022/06/12 19:34:55;;;;;;;;;;;;;;;25.75;80.79;98512.16;4901605;29;19969;-68
2022/06/12 19:37:22;;;;;;;;;;;;;;;25.75;80.64;98512.91;4901467;29;19956;-67
2022/06/12 19:39:49;;;;;;;;;;;;;;;25.74;81.81;98517.09;4901933;29;19951;-68
2022/06/12 19:42:24;;;;;;;;;;;;;;;25.65;86.06;98525.00;4901417;29;19974;-68
2022/06/12 19:44:52;;;;;;;;;;;;;;;25.54;86.60;98521.91;4901680;29;20357;-68
2022/06/12 19:47:19;;;;;;;;;;;;;;;25.55;84.77;98529.25;4901691;29;19967;-68
2022/06/12 19:49:46;;;;;;;;;;;;;;;25.43;86.32;98513.91;4902173;29;19947;-68
2022/06/12 19:52:16;;;;;;;;;;;;;;;25.36;86.65;98517.13;4898150;29;20305;-68
2022/06/12 19:54:44;;;;;;;;;;;;;;;25.22;87.89;98515.84;4895918;29;20335;-68
2022/06/12 19:57:11;;;;;;;;;;;;;;;25.09;87.52;98518.19;4899954;29;19953;-68
2022/06/12 19:59:39;;;;;;;;;;;;;;;25.03;88.64;98522.25;4900983;29;19951;-67
2022/06/12 20:02:06;;;;;;;;;;;;;;;24.98;87.83;98526.56;4900714;29;20330;-68
2022/06/12 20:07:31;;;;;;;;;;;;;;;24.91;88.19;98521.22;4904499;29;19955;-68
2022/06/12 20:10:04;;;;;;;;;;;;;;;24.88;88.09;98515.69;4895701;29;20270;-72
